• Join FlightAware (Why Join?)
  • Login
  • US Flag 
01:03AM EDT


 

Airport Tracker/Info


-or-


 

Live Flight TrackerFlight Track Log ✈ N717AN ✈ 05-May-2013 ✈ EGLL / LHR - KJFK

Flight Track Log - Related Links

Times and Time Zones

All times are in EDT time to prevent confusion due to time zone crossing. See the N717AN flight status page for this flight to view local times or setup timezone preferences in your user account.

Time Position Orientation Groundspeed Altitude Reporting Facility
EDT Latitude Longitude Course Direction KTS MPH feet Rate Location/Type
05:48AM 51.4760 -0.5200 260° West 184 212 1,400  Level FlightAware
05:48AM 51.4731 -0.5403 257° West 183 211 2,100 2,400 Climbing FlightAware ADS-B
05:48AM 51.4706 -0.5580 257° West 186 214 2,500 1,800 Climbing FlightAware ADS-B
05:48AM 51.4683 -0.5752 258° West 189 217 2,900 1,980 Climbing FlightAware ADS-B
05:48AM 51.4659 -0.5920 257° West 192 221 3,300 1,500 Climbing FlightAware ADS-B
05:49AM 51.4626 -0.6137 256° West 204 235 3,600 960 Climbing FlightAware ADS-B
05:49AM 51.4590 -0.6374 256° West 224 258 3,800 1,200 Climbing FlightAware ADS-B
05:49AM 51.4557 -0.6636 259° West 237 273 4,200 1,980 Climbing FlightAware ADS-B
05:49AM 51.4548 -0.6730 261° West 237 273 4,500 2,400 Climbing FlightAware ADS-B
05:49AM 51.4543 -0.6808 264° West 239 275 4,600 1,320 Climbing FlightAware ADS-B
05:49AM 51.4540 -0.6897 267° West 243 280 4,700 1,500 Climbing FlightAware ADS-B
05:50AM 51.4540 -0.7179 270° West 255 293 5,100 1,800 Climbing FlightAware ADS-B
05:50AM 51.4540 -0.7391 270° West 261 300 5,500 2,040 Climbing FlightAware ADS-B
05:50AM 51.4540 -0.7695 270° West 271 312 6,000 2,160 Climbing FlightAware ADS-B
05:50AM 51.4541 -0.7993 270° West 271 312 6,600 2,520 Climbing FlightAware ADS-B
05:50AM 51.4546 -0.8102 274° West 272 313 6,900 3,000 Climbing FlightAware ADS-B
05:51AM 51.4553 -0.8179 278° West 271 312 7,100 1,980 Climbing FlightAware ADS-B
05:51AM 51.4567 -0.8272 284° West 271 312 7,200 2,400 Climbing FlightAware ADS-B
05:51AM 51.4617 -0.8571 285° West 272 313 7,900 2,760 Climbing FlightAware ADS-B
05:51AM 51.4667 -0.8864 285° West 270 311 8,600 2,580 Climbing FlightAware ADS-B
05:51AM 51.4718 -0.9159 286° West 273 314 9,200 2,460 Climbing FlightAware ADS-B
05:52AM 51.4772 -0.9475 285° West 273 314 9,900 2,220 Climbing FlightAware ADS-B
05:52AM 51.4881 -1.0105 286° West 288 331 11,000 1,680 Climbing FlightAware ADS-B
05:53AM 51.5006 -1.0792 286° West 323 372 11,700 -360 Climbing FlightAware ADS-B
05:53AM 51.5107 -1.1337 286° West 354 407 10,700 1,260 Descending FlightAware UK
05:53AM 51.5155 -1.1569 286° West 362 417 12,400 4,080 Climbing FlightAware ADS-B
05:54AM 51.5315 -1.2405 287° West 387 445 13,500 600 Climbing FlightAware ADS-B
05:54AM 51.5420 -1.2946 287° West 392 451 12,900 2,400 Descending FlightAware UK
05:54AM 51.5479 -1.3239 287° West 398 458 14,700 3,000 Climbing FlightAware ADS-B
05:55AM 51.5653 -1.4115 288° West 405 466 15,000 1,200 Climbing FlightAware ADS-B
05:55AM 51.5834 -1.5024 288° West 408 470 16,000 360 Climbing FlightAware ADS-B
05:56AM 51.5931 -1.5509 288° West 408 470 15,300 3,000 Descending FlightAware UK
05:56AM 51.5974 -1.5731 288° West 413 475 17,200 4,860 Climbing FlightAware ADS-B
05:56AM 51.6126 -1.6639 285° West 425 489 18,400 2,280 Climbing FlightAware ADS-B
05:57AM 51.6280 -1.7594 285° West 435 501 19,600 360 Climbing FlightAware ADS-B
05:57AM 51.6357 -1.8073 285° West 434 499 18,700 2,760 Descending FlightAware UK
05:57AM 51.6436 -1.8541 285° West 439 505 21,000 2,640 Climbing FlightAware ADS-B
05:58AM 51.6545 -1.9207 285° West 442 509 20,300 2,400 Descending FlightAware UK
05:58AM 51.6597 -1.9504 285° West 444 511 22,200 4,620 Climbing FlightAware ADS-B
05:58AM 51.6759 -2.0479 285° West 449 517 23,400 360 Climbing FlightAware ADS-B
05:59AM 51.6867 -2.1130 285° West 452 520 22,500 1,980 Descending FlightAware UK
05:59AM 51.6924 -2.1477 285° West 456 525 24,400 1,980 Climbing FlightAware ADS-B
05:59AM 51.7030 -2.2115 285° West 458 527 23,500 1,920 Descending FlightAware UK
05:59AM 51.7091 -2.2498 285° West 465 535 25,400 3,960 Climbing FlightAware ADS-B
06:00AM 51.7260 -2.3532 285° West 474 545 26,300 1,800 Climbing FlightAware ADS-B
06:00AM 51.7398 -2.4414 284° West 477 549 27,100 -480 Climbing FlightAware ADS-B
06:00AM 51.7467 -2.4980 284° West 476 548 26,000 1,680 Descending FlightAware UK
06:01AM 51.7510 -2.5390 284° West 482 555 27,900 1,800 Climbing FlightAware ADS-B
06:01AM 51.7570 -2.6046 284° West 482 555 26,900 1,740 Descending FlightAware UK
06:01AM 51.7607 -2.6597 284° West 487 560 28,900 1,620 Climbing FlightAware ADS-B
06:02AM 51.7660 -2.7338 284° West 488 562 27,900 1,500 Descending FlightAware UK
06:02AM 51.7690 -2.7800 284° West 492 566 29,800 5,160 Climbing FlightAware
06:02AM 51.7731 -2.8389 276° West 493 567 30,400 2,400 Climbing FlightAware ADS-B
06:03AM 51.7831 -2.9812 277° West 490 564 31,900 1,860 Climbing FlightAware ADS-B
06:03AM 51.7910 -3.0940 277° West 487 560 32,700 -360 Climbing FlightAware
06:04AM 51.7960 -3.1671 277° West 480 552 31,600 1,500 Descending FlightAware UK
06:04AM 51.8010 -3.2380 277° West 487 560 33,700 1,500 Climbing FlightAware
06:04AM 51.8048 -3.2971 277° West 478 550 32,500 420 Descending FlightAware UK
06:05AM 51.8100 -3.3790 277° West 484 557 34,000  Climbing FlightAware
06:05AM 51.8190 -3.5128 277° West 478 550 32,500  Descending FlightAware UK
06:05AM 51.8200 -3.5250 277° West 483 556 34,000  Climbing FlightAware
06:06AM 51.8246 -3.5980 277° West 478 550 32,500 -2,100 Descending FlightAware UK
06:06AM 51.8302 -3.6838 276° West 476 548 32,500 3,420 Level FlightAware UK
06:06AM 51.8300 -3.6810 276° West 482 555 34,000 1,860 Climbing FlightAware
06:07AM 51.8390 -3.8340 275° West 481 554 34,000 -1,440 Level FlightAware
06:07AM 51.8448 -3.9193 275° West 478 550 32,500  Descending FlightAware UK
06:07AM 51.8480 -3.9820 275° West 480 552 34,000  Climbing FlightAware
06:08AM 51.8576 -4.1323 275° West 478 550 32,500  Descending FlightAware UK
06:08AM 51.8570 -4.1310 275° West 479 551 34,000  Climbing FlightAware
06:08AM 51.8614 -4.1963 275° West 476 548 32,500 -2,700 Descending FlightAware UK
06:09AM 51.8653 -4.2602 276° West 476 548 32,500 3,060 Level FlightAware UK
06:09AM 51.8670 -4.2870 276° West 479 551 34,000  Climbing FlightAware
06:09AM 51.8714 -4.3669 276° West 476 548 32,500  Descending FlightAware UK
06:09AM 51.8750 -4.4230 276° West 477 549 34,000  Climbing FlightAware
06:10AM 51.8811 -4.5370 276° West 476 548 32,500  Descending FlightAware UK
06:10AM 51.8820 -4.5580 276° West 476 548 34,000  Climbing FlightAware
06:11AM 51.8904 -4.7068 276° West 476 548 32,500  Descending FlightAware UK
06:11AM 51.8910 -4.7260 276° West 477 549 34,000  Climbing FlightAware
06:11AM 51.8963 -4.8132 276° West 478 550 32,500  Descending FlightAware UK
06:12AM 51.8990 -4.8740 276° West 475 547 34,000  Climbing FlightAware
06:12AM 51.9041 -4.9614 276° West 476 548 32,500 -2,280 Descending FlightAware UK
06:12AM 51.9073 -5.0251 275° West 476 548 32,500 3,900 Level FlightAware UK
06:12AM 51.9070 -5.0230 275° West 475 547 34,000  Climbing FlightAware
06:13AM 51.9117 -5.1099 275° West 474 545 32,500  Descending FlightAware UK
06:13AM 51.9150 -5.1720 275° West 476 548 34,000  Climbing FlightAware
06:13AM 51.9193 -5.2587 275° West 474 545 32,500 -2,340 Descending FlightAware UK
06:14AM 51.9223 -5.3226 274° West 474 545 32,500 4,680 Level FlightAware UK
06:14AM 51.9220 -5.3160 274° West 478 550 34,000  Climbing FlightAware
06:14AM 51.9253 -5.3866 274° West 476 548 32,500 -2,580 Descending FlightAware UK
06:14AM 51.9285 -5.4508 275° West 476 548 32,500 3,180 Level FlightAware UK
06:14AM 51.9300 -5.4810 275° West 478 550 34,000  Climbing FlightAware
06:15AM 51.9347 -5.5792 275° West 476 548 32,500  Descending FlightAware UK
06:15AM 51.9370 -5.6210 275° West 477 549 34,000  Climbing FlightAware
06:15AM 51.9399 -5.6860 275° West 478 550 32,500  Descending FlightAware UK
06:16AM 51.9430 -5.7620 275° West 477 549 34,000  Climbing FlightAware
06:16AM 51.9465 -5.8352 275° West 478 550 32,500 -2,520 Descending FlightAware UK
06:16AM 51.9494 -5.8992 274° West 476 548 32,500 3,300 Level FlightAware UK
06:16AM 51.9510 -5.9260 274° West 477 549 34,000  Climbing FlightAware
06:17AM 51.9533 -5.9844 274° West 478 550 32,500 -2,760 Descending FlightAware UK
06:17AM 51.9560 -6.0476 274° West 482 555 32,500 3,600 Level FlightAware UK
06:17AM 51.9570 -6.0670 274° West 474 545 34,000  Climbing FlightAware
06:17AM 51.9596 -6.1326 274° West 476 548 32,500 -2,580 Descending FlightAware UK
06:18AM 51.9624 -6.1962 274° West 478 550 32,500 3,180 Level FlightAware UK
06:18AM 51.9630 -6.2240 274° West 474 545 34,000  Climbing FlightAware
06:18AM 51.9667 -6.3020 274° West 476 548 32,500 -2,400 Descending FlightAware UK
06:19AM 51.9692 -6.3654 274° West 476 548 32,500 3,600 Level FlightAware UK
06:19AM 51.9700 -6.3850 274° West 473 544 34,000  Climbing FlightAware
06:19AM 51.9724 -6.4500 274° West 478 550 32,500 -2,580 Descending FlightAware UK
06:19AM 51.9749 -6.5135 274° West 476 548 32,500 3,900 Level FlightAware UK
06:19AM 51.9750 -6.5270 274° West 472 543 34,000  Climbing FlightAware
06:20AM 51.9782 -6.5981 274° West 478 550 32,500  Descending FlightAware UK
06:20AM 51.9810 -6.6590 274° West 470 541 34,000 -180 Climbing FlightAware
06:20AM 51.9832 -6.7247 274° West 478 550 32,400 -2,940 Descending FlightAware UK
06:21AM 51.9857 -6.7879 274° West 476 548 32,400 3,180 Level FlightAware UK
06:21AM 51.9870 -6.8240 274° West 468 539 34,000 180 Climbing FlightAware
06:21AM 51.9895 -6.8928 274° West 478 550 32,500  Descending FlightAware UK
06:21AM 51.9910 -6.9430 274° West 467 537 34,000  Climbing FlightAware
06:22AM 51.9938 -7.0183 274° West 478 550 32,500 -2,640 Descending FlightAware UK
06:22AM 51.9959 -7.0810 273° West 476 548 32,400 4,260 Descending FlightAware UK
06:22AM 51.9960 -7.0820 273° West 467 537 34,000  Climbing FlightAware
06:22AM 51.9980 -7.1438 273° West 478 550 32,400 -2,940 Descending FlightAware UK
06:23AM 52.0001 -7.2058 273° West 476 548 32,400 3,840 Level FlightAware UK
06:23AM 52.0010 -7.2260 273° West 466 536 34,000  Climbing FlightAware
06:23AM 52.0030 -7.2894 273° West 476 548 32,400 -2,760 Descending FlightAware UK
06:23AM 52.0049 -7.3522 273° West 476 548 32,400 3,420 Level FlightAware UK
06:23AM 52.0060 -7.3790 273° West 467 537 34,000 180 Climbing FlightAware
06:24AM 52.0082 -7.4568 273° West 478 550 32,500 -2,400 Descending FlightAware UK
06:24AM 52.0101 -7.5196 273° West 476 548 32,500 4,500 Level FlightAware UK
06:24AM 52.0100 -7.5180 273° West 466 536 34,000  Climbing FlightAware
06:24AM 52.0121 -7.5824 273° West 478 550 32,500 -2,700 Descending FlightAware UK
06:25AM 52.0139 -7.6452 273° West 476 548 32,500 3,060 Level FlightAware UK
06:25AM 52.0150 -7.6740 273° West 466 536 34,000  Climbing FlightAware
06:25AM 52.0170 -7.7497 273° West 476 548 32,500 -2,460 Descending FlightAware UK
06:25AM 52.0190 -7.8124 273° West 476 548 32,500 4,260 Level FlightAware UK
06:25AM 52.0180 -7.8060 273° West 466 536 34,000  Climbing FlightAware
06:26AM 52.0207 -7.8751 273° West 476 548 32,500 -2,760 Descending FlightAware UK
06:26AM 52.0223 -7.9377 272° West 476 548 32,500 3,000 Level FlightAware UK
06:26AM 52.0230 -7.9740 272° West 466 536 34,000  Climbing FlightAware
06:27AM 52.0247 -8.0421 272° West 478 550 32,500  Descending FlightAware UK
06:27AM 52.0260 -8.0900 272° West 465 535 34,000 -360 Climbing FlightAware
06:27AM 52.0263 -8.1047 272° West 478 550 32,400 -5,100 Descending FlightAware UK
06:27AM 52.0279 -8.1673 272° West 480 552 32,400  Level FlightAware UK
06:27AM 52.0295 -8.2297 272° West 478 550 32,400 3,660 Level FlightAware UK
06:28AM 52.0300 -8.2530 272° West 460 529 34,000  Climbing FlightAware
06:28AM 52.0315 -8.3124 272° West 476 548 32,400 -2,700 Descending FlightAware UK
06:28AM 52.0332 -8.3737 273° West 478 550 32,500 3,300 Climbing FlightAware UK
06:28AM 52.0340 -8.4030 273° West 459 528 34,000  Climbing FlightAware
06:29AM 52.0356 -8.4766 273° West 476 548 32,500 -2,640 Descending FlightAware UK
06:29AM 52.0368 -8.5384 272° West 476 548 32,400 4,260 Descending FlightAware UK
06:29AM 52.0360 -8.5310 272° West 459 528 34,000 240 Climbing FlightAware
06:29AM 52.0385 -8.6207 272° West 476 548 32,500 -2,340 Descending FlightAware UK
06:30AM 52.0397 -8.6824 272° West 474 545 32,500 2,640 Level FlightAware UK
06:30AM 52.0400 -8.7170 272° West 459 528 34,000  Climbing FlightAware
06:30AM 52.0421 -8.8056 272° West 474 545 32,500 -2,400 Descending FlightAware UK
06:31AM 52.0433 -8.8674 272° West 476 548 32,500 3,600 Level FlightAware UK
06:31AM 52.0430 -8.8750 272° West 459 528 34,000  Climbing FlightAware
06:31AM 52.0449 -8.9499 272° West 474 545 32,500  Descending FlightAware UK
06:31AM 52.0460 -9.0080 272° West 459 528 34,000 1,380 Climbing FlightAware
06:32AM 52.0480 -9.1490 271° West 461 531 34,000  Level FlightAware
06:33AM 52.0510 -9.3030 272° West 461 531 34,000  Level FlightAware
06:33AM 52.0530 -9.4430 271° West 460 529 34,000  Level FlightAware
06:34AM 52.0550 -9.6010 271° West 460 529 34,000  Level FlightAware
06:35AM 52.0570 -9.7370 271° West 457 526 34,000  Level FlightAware
06:35AM 52.0580 -9.8760 271° West 457 526 34,000  Level FlightAware
06:36AM 52.0600 -10.0280 271° West 456 525 34,000  Level FlightAware
06:37AM 52.0610 -10.1610 271° West 457 526 34,000  Level FlightAware
06:38AM 52.0620 -10.3180 271° West 458 527 34,000  Level FlightAware
06:38AM 52.0630 -10.4570 271° West 459 528 34,000  Level FlightAware
06:39AM 52.0630 -10.5960 270° West 460 529 34,000  Level FlightAware
06:40AM 52.0640 -10.7560 271° West 460 529 34,000  Level FlightAware
06:40AM 52.0640 -10.8880 270° West 460 529 34,000  Level FlightAware
06:41AM 52.0640 -11.0440 270° West 460 529 34,000  Level FlightAware
06:42AM 52.0640 -11.2340 270° West 459 528 34,000  Level FlightAware
06:43AM 52.0640 -11.3720 270° West 457 526 34,000  Level FlightAware
06:43AM 52.0640 -11.5270 270° West 455 524 34,000  Level FlightAware
06:44AM 52.0630 -11.6320 269° West 455 524 34,000  Level FlightAware
06:45AM 52.0620 -11.8140 270° West 455 524 34,000  Level FlightAware
06:46AM 52.0600 -11.9600 269° West 455 524 34,000  Level FlightAware
06:46AM 52.0590 -12.0760 269° West 455 524 34,000  Level FlightAware
06:47AM 52.0580 -12.1930 269° West 455 524 34,000  Level FlightAware
06:48AM 52.0570 -12.3090 269° West 455 524 34,000  Level FlightAware
06:48AM 52.0550 -12.4250 268° West 455 524 34,000  Level FlightAware
06:49AM 52.0540 -12.5420 269° West 455 524 34,000  Level FlightAware
06:50AM 52.0530 -12.6870 269° West 455 524 34,000  Level FlightAware
06:51AM 52.0510 -12.8040 268° West 455 524 34,000  Level FlightAware
06:51AM 52.0500 -12.9200 269° West 455 524 34,000  Level FlightAware
06:52AM 52.0490 -13.0360 269° West 455 524 34,000  Level FlightAware
06:53AM 52.0470 -13.1820 269° West 455 524 34,000  Level FlightAware
06:53AM 52.0460 -13.2980 269° West 455 524 34,000  Level FlightAware
06:54AM 52.0450 -13.4150 269° West 455 524 34,000  Level FlightAware
06:57AM 52.0899 -13.8845 279° West  Level Estimated
06:58AM 52.1081 -14.0818 279° West  Level Estimated
06:59AM 52.1261 -14.2792 278° West  Level Estimated
07:00AM 52.1437 -14.4768 278° West  Level Estimated
07:01AM 52.1610 -14.6746 278° West  Level Estimated
07:02AM 52.1779 -14.8725 278° West  Level Estimated
07:03AM 52.1945 -15.0705 278° West  Level Estimated
07:04AM 52.2108 -15.2687 278° West  Level Estimated
07:05AM 52.2268 -15.4671 278° West  Level Estimated
07:06AM 52.2424 -15.6655 277° West  Level Estimated
07:07AM 52.2577 -15.8642 277° West  Level Estimated
07:08AM 52.2726 -16.0629 277° West  Level Estimated
07:09AM 52.2873 -16.2618 277° West  Level Estimated
07:10AM 52.3016 -16.4608 277° West  Level Estimated
07:11AM 52.3155 -16.6600 277° West  Level Estimated
07:12AM 52.3291 -16.8592 276° West  Level Estimated
07:13AM 52.3424 -17.0586 276° West  Level Estimated
07:14AM 52.3553 -17.2582 276° West  Level Estimated
07:15AM 52.3680 -17.4578 276° West  Level Estimated
07:16AM 52.3802 -17.6575 276° West  Level Estimated
07:17AM 52.3922 -17.8574 276° West  Level Estimated
07:18AM 52.4041 -18.0640 276° West  Level Estimated
07:19AM 52.4158 -18.2708 275° West  Level Estimated
07:20AM 52.4270 -18.4777 275° West  Level Estimated
07:21AM 52.4379 -18.6846 275° West  Level Estimated
07:22AM 52.4485 -18.8917 275° West  Level Estimated
07:23AM 52.4586 -19.0989 275° West  Level Estimated
07:24AM 52.4684 -19.3062 275° West  Level Estimated
07:25AM 52.4779 -19.5135 274° West  Level Estimated
07:26AM 52.4870 -19.7210 274° West  Level Estimated
07:27AM 52.4957 -19.9285 274° West  Level Estimated
07:27AM 51.0000 -20.0000 257° West 448 516 34,000  Level ETMS Enhanced Traffic Management System
07:28AM 52.5041 -20.1361 274° West  Level Estimated
07:29AM 52.5121 -20.3438 274° West  Level Estimated
07:30AM 52.5197 -20.5516 274° West  Level Estimated
07:31AM 52.5270 -20.7594 273° West  Level Estimated
07:32AM 52.5339 -20.9673 273° West  Level Estimated
07:33AM 50.8211 -21.1507 256° West 448 516 34,000  Level FlightAware Transoceanic
07:34AM 50.7901 -21.3416 256° West 448 516 34,000  Level FlightAware Transoceanic
07:35AM 50.7589 -21.5323 255° West 448 516 34,000  Level FlightAware Transoceanic
07:36AM 50.7274 -21.7227 255° West 448 516 34,000  Level FlightAware Transoceanic
07:37AM 50.6955 -21.9128 255° West 448 516 34,000  Level FlightAware Transoceanic
07:38AM 50.6634 -22.1027 255° West 448 516 34,000  Level FlightAware Transoceanic
07:39AM 50.6309 -22.2924 255° West 448 516 34,000  Level FlightAware Transoceanic
07:39AM 50.6333 -22.2667 255° West 449 517 34,000  Level ETMS Enhanced Traffic Management System
07:40AM 50.5981 -22.4817 255° West 448 516 34,000  Level FlightAware Transoceanic
07:41AM 50.5650 -22.6708 255° West 448 516 34,000  Level FlightAware Transoceanic
07:42AM 50.5317 -22.8597 254° West 448 516 34,000  Level FlightAware Transoceanic
07:43AM 50.4980 -23.0482 254° West 448 516 34,000  Level FlightAware Transoceanic
07:44AM 50.4640 -23.2365 254° West 448 516 34,000  Level FlightAware Transoceanic
07:45AM 50.3973 -23.5910 254° West 449 517 34,000  Level FlightAware Transoceanic
07:46AM 50.3624 -23.7792 254° West 449 517 34,000  Level FlightAware Transoceanic
07:47AM 50.3272 -23.9670 254° West 449 517 34,000  Level FlightAware Transoceanic
07:48AM 50.2916 -24.1545 253° West 449 517 34,000  Level FlightAware Transoceanic
07:49AM 50.2558 -24.3418 253° West 449 517 34,000  Level FlightAware Transoceanic
07:50AM 50.2197 -24.5288 253° West 449 517 34,000  Level FlightAware Transoceanic
07:51AM 50.1832 -24.7155 253° West 449 517 34,000  Level FlightAware Transoceanic
07:52AM 50.1465 -24.9019 253° West 449 517 34,000  Level FlightAware Transoceanic
07:53AM 50.1094 -25.0880 253° West 449 517 34,000  Level FlightAware Transoceanic
07:54AM 50.0721 -25.2739 253° West 449 517 34,000  Level FlightAware Transoceanic
07:55AM 50.0345 -25.4594 252° West 449 517 34,000  Level FlightAware Transoceanic
07:56AM 49.9965 -25.6447 252° West 449 517 34,000  Level FlightAware Transoceanic
07:57AM 49.9583 -25.8297 252° West 449 517 34,000  Level FlightAware Transoceanic
07:58AM 49.9198 -26.0143 252° West 449 517 34,000  Level FlightAware Transoceanic
07:59AM 49.8810 -26.1987 252° West 449 517 34,000  Level FlightAware Transoceanic
08:00AM 49.8419 -26.3828 252° West 449 517 34,000  Level FlightAware Transoceanic
08:01AM 49.8025 -26.5665 252° West 449 517 34,000  Level FlightAware Transoceanic
08:02AM 49.7628 -26.7500 251° West 449 517 34,000  Level FlightAware Transoceanic
08:03AM 49.7229 -26.9332 251° West 449 517 34,000  Level FlightAware Transoceanic
08:04AM 49.6826 -27.1161 251° West 449 517 34,000  Level FlightAware Transoceanic
08:05AM 49.6421 -27.2987 251° West 449 517 34,000  Level FlightAware Transoceanic
08:06AM 49.6012 -27.4809 251° West 449 517 34,000  Level FlightAware Transoceanic
08:07AM 49.5601 -27.6629 251° West 449 517 34,000  Level FlightAware Transoceanic
08:08AM 49.5187 -27.8445 251° West 449 517 34,000  Level FlightAware Transoceanic
08:09AM 49.4770 -28.0259 250° West 449 517 34,000  Level FlightAware Transoceanic
08:10AM 49.4351 -28.2069 250° West 449 517 34,000  Level FlightAware Transoceanic
08:11AM 49.3928 -28.3876 250° West 449 517 34,000  Level FlightAware Transoceanic
08:12AM 49.3503 -28.5680 250° West 449 517 34,000  Level FlightAware Transoceanic
08:13AM 49.3075 -28.7481 250° West 449 517 34,000  Level FlightAware Transoceanic
08:14AM 49.2644 -28.9279 250° West 449 517 34,000  Level FlightAware Transoceanic
08:15AM 49.2210 -29.1074 250° West 449 517 34,000  Level FlightAware Transoceanic
08:16AM 49.1773 -29.2866 249° West 449 517 34,000  Level FlightAware Transoceanic
08:17AM 49.1334 -29.4654 249° West 449 517 34,000  Level FlightAware Transoceanic
08:18AM 49.0892 -29.6439 249° West 449 517 34,000  Level FlightAware Transoceanic
08:19AM 49.0448 -29.8221 249° West 449 517 34,000  Level FlightAware Transoceanic
08:20AM 48.9994 -30.0025 249° West  Level FlightAware Approximate
08:21AM 48.9997 -30.0053 265° West  Level FlightAware Approximate
08:22AM 48.9885 -30.1975 265° West  Level FlightAware Approximate
08:23AM 48.9773 -30.3856 265° West  Level FlightAware Approximate
08:24AM 48.9658 -30.5736 265° West  Level FlightAware Approximate
08:25AM 48.9539 -30.7615 265° West  Level FlightAware Approximate
08:26AM 48.9417 -30.9493 264° West  Level FlightAware Approximate
08:27AM 48.9293 -31.1371 264° West  Level FlightAware Approximate
08:28AM 48.9165 -31.3247 264° West  Level FlightAware Approximate
08:29AM 48.9035 -31.5122 264° West  Level FlightAware Approximate
08:30AM 48.8901 -31.6996 264° West  Level FlightAware Approximate
08:31AM 48.8764 -31.8870 264° West  Level FlightAware Approximate
08:32AM 48.8625 -32.0742 264° West  Level FlightAware Approximate
08:33AM 48.8482 -32.2613 263° West  Level FlightAware Approximate
08:34AM 48.8336 -32.4483 263° West  Level FlightAware Approximate
08:35AM 48.8187 -32.6352 263° West  Level FlightAware Approximate
08:36AM 48.8035 -32.8220 263° West  Level FlightAware Approximate
08:37AM 48.7880 -33.0087 263° West  Level FlightAware Approximate
08:38AM 48.7723 -33.1953 263° West  Level FlightAware Approximate
08:39AM 48.7562 -33.3817 263° West  Level FlightAware Approximate
08:40AM 48.7398 -33.5680 262° West  Level FlightAware Approximate
08:41AM 48.7231 -33.7542 262° West  Level FlightAware Approximate
08:42AM 48.7061 -33.9403 262° West  Level FlightAware Approximate
08:43AM 48.6888 -34.1262 262° West  Level FlightAware Approximate
08:44AM 48.6712 -34.3121 262° West  Level FlightAware Approximate
08:45AM 48.6533 -34.4977 262° West  Level FlightAware Approximate
08:46AM 48.6352 -34.6833 262° West  Level FlightAware Approximate
08:47AM 48.6167 -34.8687 261° West  Level FlightAware Approximate
08:48AM 48.5980 -35.0540 262° West  Level FlightAware Approximate
08:49AM 48.5796 -35.2393 262° West  Level FlightAware Approximate
08:50AM 48.5610 -35.4245 261° West  Level FlightAware Approximate
08:51AM 48.5420 -35.6096 261° West  Level FlightAware Approximate
08:52AM 48.5228 -35.7944 261° West  Level FlightAware Approximate
08:53AM 48.5032 -35.9792 261° West  Level FlightAware Approximate
08:54AM 48.4834 -36.1638 261° West  Level FlightAware Approximate
08:55AM 48.4632 -36.3483 261° West  Level FlightAware Approximate
08:56AM 48.4428 -36.5326 261° West  Level FlightAware Approximate
08:57AM 48.4221 -36.7168 260° West  Level FlightAware Approximate
08:58AM 48.4011 -36.9008 260° West  Level FlightAware Approximate
08:59AM 48.3798 -37.0847 260° West  Level FlightAware Approximate
09:00AM 48.3582 -37.2684 260° West  Level FlightAware Approximate
09:01AM 48.3363 -37.4519 260° West  Level FlightAware Approximate
09:02AM 48.3141 -37.6353 260° West  Level FlightAware Approximate
09:03AM 48.2916 -37.8186 260° West  Level FlightAware Approximate
09:04AM 48.2689 -38.0017 259° West  Level FlightAware Approximate
09:05AM 48.2458 -38.1846 259° West  Level FlightAware Approximate
09:06AM 48.2225 -38.3673 259° West  Level FlightAware Approximate
09:07AM 48.1988 -38.5499 259° West  Level FlightAware Approximate
09:08AM 48.1749 -38.7323 259° West  Level FlightAware Approximate
09:09AM 48.1507 -38.9146 259° West  Level FlightAware Approximate
09:10AM 48.1262 -39.0966 259° West  Level FlightAware Approximate
09:11AM 48.1014 -39.2785 259° West  Level FlightAware Approximate
09:12AM 48.0763 -39.4602 258° West  Level FlightAware Approximate
09:13AM 48.0510 -39.6418 258° West  Level FlightAware Approximate
09:14AM 48.0253 -39.8231 258° West  Level FlightAware Approximate
09:15AM 47.9994 -40.0042 257° West  Level FlightAware Approximate
09:16AM 47.9717 -40.1848 257° West  Level FlightAware Approximate
09:17AM 47.9438 -40.3651 257° West  Level FlightAware Approximate
09:18AM 47.9156 -40.5452 257° West  Level FlightAware Approximate
09:19AM 47.8871 -40.7252 257° West  Level FlightAware Approximate
09:20AM 47.8584 -40.9049 257° West  Level FlightAware Approximate
09:21AM 47.8293 -41.0844 257° West  Level FlightAware Approximate
09:22AM 47.8000 -41.2637 256° West  Level FlightAware Approximate
09:23AM 47.7704 -41.4429 256° West  Level FlightAware Approximate
09:24AM 47.7405 -41.6218 256° West  Level FlightAware Approximate
09:25AM 47.7104 -41.8005 256° West  Level FlightAware Approximate
09:26AM 47.6799 -41.9790 256° West  Level FlightAware Approximate
09:27AM 47.6492 -42.1573 256° West  Level FlightAware Approximate
09:28AM 47.6182 -42.3354 256° West  Level FlightAware Approximate
09:29AM 47.5870 -42.5133 255° West  Level FlightAware Approximate
09:30AM 47.5554 -42.6909 255° West  Level FlightAware Approximate
09:31AM 47.5236 -42.8684 255° West  Level FlightAware Approximate
09:32AM 47.4915 -43.0456 255° West  Level FlightAware Approximate
09:33AM 47.4592 -43.2226 255° West  Level FlightAware Approximate
09:34AM 47.4266 -43.3994 255° West  Level FlightAware Approximate
09:35AM 47.3937 -43.5760 255° West  Level FlightAware Approximate
09:36AM 47.3605 -43.7524 255° West  Level FlightAware Approximate
09:37AM 47.3270 -43.9285 254° West  Level FlightAware Approximate
09:38AM 47.2933 -44.1044 254° West  Level FlightAware Approximate
09:39AM 47.2593 -44.2801 254° West  Level FlightAware Approximate
09:40AM 47.2251 -44.4555 254° West  Level FlightAware Approximate
09:41AM 47.1906 -44.6308 254° West  Level FlightAware Approximate
09:42AM 47.1558 -44.8058 254° West  Level FlightAware Approximate
09:43AM 47.1208 -44.9805 254° West  Level FlightAware Approximate
09:44AM 47.0857 -45.1552 254° West  Level FlightAware Approximate
09:45AM 47.0507 -45.3297 254° West  Level FlightAware Approximate
09:46AM 47.0154 -45.5041 254° West  Level FlightAware Approximate
09:47AM 46.9799 -45.6782 253° West  Level FlightAware Approximate
09:48AM 46.9441 -45.8520 253° West  Level FlightAware Approximate
09:49AM 46.9080 -46.0257 253° West  Level FlightAware Approximate
09:50AM 46.8717 -46.1991 253° West  Level FlightAware Approximate
09:51AM 46.8351 -46.3722 253° West  Level FlightAware Approximate
09:52AM 46.7983 -46.5451 253° West  Level FlightAware Approximate
09:53AM 46.7612 -46.7178 253° West  Level FlightAware Approximate
09:54AM 46.7238 -46.8903 253° West  Level FlightAware Approximate
09:55AM 46.6862 -47.0625 252° West  Level FlightAware Approximate
09:56AM 46.6483 -47.2345 252° West  Level FlightAware Approximate
09:57AM 46.6102 -47.4062 252° West  Level FlightAware Approximate
09:58AM 46.5718 -47.5777 252° West  Level FlightAware Approximate
09:59AM 46.5331 -47.7489 252° West  Level FlightAware Approximate
10:00AM 46.4942 -47.9199 252° West  Level FlightAware Approximate
10:01AM 46.4551 -48.0907 252° West  Level FlightAware Approximate
10:02AM 46.4157 -48.2612 252° West  Level FlightAware Approximate
10:03AM 46.3760 -48.4314 251° West  Level FlightAware Approximate
10:04AM 46.3361 -48.6015 251° West  Level FlightAware Approximate
10:05AM 46.2959 -48.7712 251° West  Level FlightAware Approximate
10:06AM 46.2555 -48.9407 251° West  Level FlightAware Approximate
10:07AM 46.2148 -49.1100 251° West  Level FlightAware Approximate
10:07AM 46.0500 -49.7167 250° West 500 575 34,000  Level Gander Center
10:08AM 46.1739 -49.2790 251° West  Level FlightAware Approximate
10:08AM 46.0000 -49.9167 250° West 500 575 34,000  Level Gander Center
10:09AM 46.1325 -49.4486 251° West  Level FlightAware Approximate
10:09AM 45.9667 -50.1000 255° West 500 575 34,000  Level Gander Center
10:10AM 46.0909 -49.6179 251° West  Level FlightAware Approximate
10:10AM 45.9500 -50.3000 263° West 500 575 34,000  Level Gander Center
10:11AM 46.0490 -49.7870 250° West  Level FlightAware Approximate
10:11AM 45.9167 -50.4667 254° West 500 575 34,000  Level Gander Center
10:12AM 46.0069 -49.9558 250° West  Level FlightAware Approximate
10:12AM 45.8833 -50.6667 257° West 500 575 34,000  Level Gander Center
10:13AM 45.8500 -50.8667 257° West 500 575 34,000  Level Gander Center
10:14AM 45.8167 -51.0500 255° West 500 575 34,000  Level Gander Center
10:15AM 45.7833 -51.2333 255° West 490 564 34,100 900 Climbing Moncton Center
10:16AM 45.7500 -51.4167 255° West 500 575 35,800 900 Climbing Moncton Center
10:17AM 45.7333 -51.6167 263° West 490 564 36,000 60 Climbing Moncton Center
10:18AM 45.6833 -51.8167 250° West 490 564 36,000  Level Moncton Center
10:19AM 45.6500 -52.0000 255° West 490 564 36,000  Level Moncton Center
10:20AM 45.6167 -52.2000 257° West 500 575 36,000  Level Moncton Center
10:21AM 45.6000 -52.3667 262° West 490 564 36,000  Level Moncton Center
10:22AM 45.5667 -52.5667 257° West 490 564 36,000  Level Moncton Center
10:22AM 45.5500 -52.6333 250° West 490 564 36,000  Level Gander Center
10:23AM 45.5500 -52.7667 270° West 490 564 36,000  Level Gander Center
10:24AM 45.5167 -52.9333 254° West 490 564 36,000  Level Moncton Center
10:25AM 45.4833 -53.1333 257° West 500 575 36,000  Level Moncton Center
10:30AM 45.3510 -54.2550 257° West 490 564 36,000  Level FlightAware
10:31AM 45.3320 -54.3800 258° West 489 563 36,000  Level FlightAware
10:32AM 45.3060 -54.5440 257° West 489 563 36,000  Level FlightAware
10:33AM 45.2890 -54.6510 257° West 489 563 36,000  Level FlightAware
10:33AM 45.2720 -54.7570 257° West 489 563 36,000  Level FlightAware
10:34AM 45.2540 -54.8640 257° West 489 563 36,000  Level FlightAware
10:35AM 45.2330 -54.9970 257° West 489 563 36,000  Level FlightAware
10:35AM 45.2150 -55.1030 256° West 489 563 36,000  Level FlightAware
10:36AM 45.1980 -55.2090 257° West 489 563 36,000  Level FlightAware
10:37AM 45.1810 -55.3160 257° West 489 563 36,000  Level FlightAware
10:37AM 45.1630 -55.4220 256° West 489 563 36,000  Level FlightAware
10:38AM 45.1460 -55.5280 257° West 489 563 36,000  Level FlightAware
10:39AM 45.1240 -55.6610 257° West 489 563 36,000  Level FlightAware
10:39AM 45.1110 -55.7410 257° West 489 563 36,000  Level FlightAware
10:40AM 45.0900 -55.8740 257° West 489 563 36,000  Level FlightAware
10:41AM 45.0730 -55.9800 257° West 489 563 36,000  Level FlightAware
10:44AM 44.9480 -56.7530 257° West 469 540 36,000  Level FlightAware
10:45AM 44.9300 -56.8540 256° West 469 540 36,000  Level FlightAware
10:45AM 44.9070 -56.9880 256° West 469 540 36,000  Level FlightAware
10:46AM 44.8780 -57.1500 256° West 468 539 36,000  Level FlightAware
10:47AM 44.8600 -57.2510 256° West 468 539 36,000  Level FlightAware
10:48AM 44.8340 -57.4010 256° West 469 540 36,000  Level FlightAware
10:48AM 44.8130 -57.5100 255° West 469 540 36,000  Level FlightAware
10:49AM 44.7940 -57.6100 255° West 469 540 36,000  Level FlightAware
10:50AM 44.7750 -57.7110 255° West 469 540 36,000  Level FlightAware
10:50AM 44.7510 -57.8360 255° West 469 540 36,000  Level FlightAware
10:51AM 44.7200 -58.0220 257° West 469 540 36,000  Level FlightAware
10:52AM 44.6950 -58.1560 255° West 469 540 36,000  Level FlightAware
10:53AM 44.6740 -58.2700 256° West 470 541 36,000  Level FlightAware
10:53AM 44.6510 -58.3890 255° West 470 541 36,000  Level FlightAware
10:54AM 44.6270 -58.5170 255° West 472 543 36,000  Level FlightAware
10:55AM 44.6070 -58.6190 255° West 472 543 36,000  Level FlightAware
10:55AM 44.5770 -58.7770 255° West 472 543 36,000  Level FlightAware
10:56AM 44.5600 -58.8640 255° West 473 544 36,000  Level FlightAware
10:57AM 44.5370 -58.9810 255° West 473 544 36,000  Level FlightAware
10:57AM 44.5140 -59.0990 255° West 473 544 36,000  Level FlightAware
10:58AM 44.4910 -59.2140 254° West 472 543 36,000  Level FlightAware
10:59AM 44.4650 -59.3460 255° West 472 543 36,000  Level FlightAware
10:59AM 44.4360 -59.4880 254° West 472 543 36,000  Level FlightAware
11:00AM 44.4110 -59.6130 254° West 472 543 36,000  Level FlightAware
11:01AM 44.3900 -59.7130 254° West 472 543 36,000  Level FlightAware
11:02AM 44.3700 -59.8120 254° West 472 543 36,000  Level FlightAware
11:02AM 44.3490 -59.9120 254° West 472 543 36,000  Level FlightAware
11:03AM 44.3290 -60.0120 254° West 472 543 36,000  Level FlightAware
11:04AM 44.3080 -60.1120 254° West 472 543 36,000  Level FlightAware
11:04AM 44.2830 -60.2360 254° West 472 543 36,000  Level FlightAware
11:05AM 44.2620 -60.3360 254° West 472 543 36,000  Level FlightAware
11:06AM 44.2420 -60.4360 254° West 472 543 36,000  Level FlightAware
11:06AM 44.2260 -60.5100 253° West 472 543 36,000  Level FlightAware
11:07AM 44.2060 -60.6100 254° West 472 543 36,000  Level FlightAware
11:08AM 44.1850 -60.7090 254° West 472 543 36,000  Level FlightAware
11:08AM 44.1650 -60.8090 254° West 472 543 36,000  Level FlightAware
11:09AM 44.1500 -60.8840 254° West 472 543 36,000  Level FlightAware
11:13AM 43.9370 -61.8390 253° West 36,000  Level FlightAware
11:18AM 43.7550 -62.6340 253° West 471 542 36,000  Level FlightAware
11:18AM 43.7250 -62.7590 252° West 472 543 36,000  Level FlightAware
11:19AM 43.6970 -62.8790 252° West 472 543 36,000  Level FlightAware
11:20AM 43.6800 -62.9520 252° West 472 543 36,000  Level FlightAware
11:20AM 43.6510 -63.0740 252° West 472 543 36,000  Level FlightAware
11:22AM 43.5570 -63.4660 252° West 36,000  Level FlightAware
11:23AM 43.5360 -63.5530 252° West 36,000  Level FlightAware
11:26AM 43.4020 -64.0960 251° West 36,000  Level FlightAware
11:28AM 43.3160 -64.4400 251° West 458 527 36,000  Level FlightAware
11:29AM 43.2810 -64.5760 251° West 457 526 36,000  Level FlightAware
11:30AM 43.2600 -64.6580 251° West 458 527 36,000  Level FlightAware
11:30AM 43.2390 -64.7440 251° West 457 526 36,000  Level FlightAware
11:31AM 43.2140 -64.8410 251° West 457 526 36,000  Level FlightAware
11:31AM 43.1890 -64.9350 250° West 457 526 36,000  Level FlightAware
11:32AM 43.1580 -65.0580 251° West 458 527 36,000  Level FlightAware
11:33AM 43.1250 -65.1830 250° West 459 528 36,000  Level FlightAware
11:33AM 43.0970 -65.2920 251° West 460 529 36,000  Level FlightAware
11:34AM 43.0640 -65.4170 250° West 460 529 36,000  Level FlightAware
11:35AM 43.0320 -65.5390 250° West 461 531 36,000  Level FlightAware
11:36AM 42.9990 -65.6620 250° West 463 533 36,000  Level FlightAware
11:36AM 42.9690 -65.7760 250° West 468 539 36,000  Level FlightAware
11:37AM 42.9400 -65.8840 250° West 468 539 36,000  Level FlightAware
11:38AM 42.9050 -66.0120 250° West 470 541 36,000  Level FlightAware
11:38AM 42.8840 -66.0920 250° West 472 543 36,000  Level FlightAware
11:39AM 42.8530 -66.2060 250° West 472 543 36,000  Level FlightAware
11:40AM 42.8190 -66.3310 250° West 474 545 36,000  Level FlightAware
11:40AM 42.7880 -66.4440 250° West 475 547 36,000  Level FlightAware
11:41AM 42.7560 -66.5580 249° West 472 543 36,000  Level FlightAware
11:42AM 42.7270 -66.6660 250° West 472 543 36,000  Level FlightAware
11:42AM 42.7020 -66.7610 250° West 472 543 36,000  Level FlightAware
11:43AM 42.6760 -66.8560 250° West 472 543 36,000  Level FlightAware
11:44AM 42.6510 -66.9510 250° West 472 543 36,000  Level FlightAware
11:44AM 42.6250 -67.0450 249° West 472 543 36,000  Level FlightAware
11:45AM 42.6000 -67.1400 250° West 472 543 36,000  Level FlightAware
11:46AM 42.5750 -67.2350 250° West 472 543 36,000  Level FlightAware
11:46AM 42.5620 -67.4510 265° West 36,000  Level FlightAware
11:47AM 42.5370 -67.6040 258° West 479 551 36,000  Level FlightAware
11:48AM 42.5200 -67.7040 257° West 479 551 36,000  Level FlightAware
11:48AM 42.5070 -67.7790 257° West 479 551 36,000  Level FlightAware
11:49AM 42.4850 -67.9290 259° West 36,000  Level FlightAware
11:50AM 42.4670 -68.0340 257° West 478 550 36,000  Level FlightAware
11:50AM 42.4530 -68.1210 258° West 479 551 36,000  Level FlightAware
11:51AM 42.4350 -68.2290 257° West 480 552 36,000  Level FlightAware
11:51AM 42.4130 -68.3590 257° West 480 552 36,000  Level FlightAware
11:52AM 42.3960 -68.4620 257° West 481 554 36,000  Level FlightAware
11:53AM 42.3780 -68.5660 257° West 481 554 36,000  Level FlightAware
11:53AM 42.3600 -68.6700 257° West 480 552 36,000  Level FlightAware
11:54AM 42.3400 -68.7880 257° West 479 551 36,000  Level FlightAware
11:55AM 42.3160 -68.9280 257° West 479 551 36,000  Level FlightAware
11:55AM 42.2990 -69.0210 256° West 479 551 36,000  Level FlightAware
11:56AM 42.2740 -69.1640 257° West 479 551 36,000  Level FlightAware
11:57AM 42.2540 -69.2810 257° West 481 554 36,000  Level FlightAware
11:57AM 42.2300 -69.4110 256° West 480 552 36,000  Level FlightAware
11:58AM 42.2130 -69.5110 257° West 479 551 36,000  Level FlightAware
11:58AM 42.1970 -69.5990 256° West 479 551 36,000  Level FlightAware
11:59AM 42.1750 -69.7160 256° West 479 551 36,000  Level FlightAware
12:00PM 42.1610 -69.7930 256° West 480 552 36,000  Level FlightAware
12:00PM 42.1350 -69.9350 256° West 484 557 36,000  Level FlightAware
12:01PM 42.1150 -70.0480 257° West 485 558 36,000  Level FlightAware
12:02PM 42.0970 -70.1420 256° West 486 559 36,000  Level FlightAware
12:02PM 42.0680 -70.2980 256° West 484 557 36,000  Level FlightAware
12:03PM 42.0510 -70.3850 255° West 488 562 36,000  Level FlightAware
12:04PM 42.0230 -70.4940 251° West 489 563 36,000  Level FlightAware
12:04PM 41.9910 -70.5950 247° West 489 563 36,000  Level FlightAware
12:05PM 41.9610 -70.6870 246° West 486 559 36,000  Level FlightAware
12:05PM 41.9200 -70.7800 239° Southwest 489 563 36,000  Level FlightAware
12:06PM 41.8790 -70.8550 234° Southwest 488 562 36,000  Level FlightAware
12:07PM 41.8170 -70.9670 233° Southwest 486 559 36,000  Level FlightAware
12:07PM 41.7700 -71.0530 234° Southwest 485 558 36,000  Level FlightAware
12:08PM 41.7300 -71.1250 233° Southwest 486 559 36,000 -1,200 Level FlightAware
12:08PM 41.6690 -71.2340 233° Southwest 484 557 34,500 -2,220 Descending FlightAware
12:09PM 41.6100 -71.3410 234° Southwest 475 547 32,700 -2,280 Descending FlightAware
12:10PM 41.5780 -71.3990 234° Southwest 469 540 31,900 -2,040 Descending FlightAware
12:11PM 41.5070 -71.5240 233° Southwest 464 534 30,000 -2,100 Descending FlightAware
12:11PM 41.4490 -71.6290 234° Southwest 448 516 28,400 -2,040 Descending FlightAware
12:12PM 41.4060 -71.7030 232° Southwest 439 505 27,300 -1,980 Descending FlightAware
12:12PM 41.3660 -71.7750 234° Southwest 429 494 26,100 -1,920 Descending FlightAware
12:13PM 41.2950 -71.8970 232° Southwest 417 480 24,300 -1,080 Descending FlightAware
12:14PM 41.2460 -71.9760 230° Southwest 417 480 24,300 -1,200 Level FlightAware
12:15PM 41.1830 -72.0300 213° Southwest 414 476 22,700 -1,200 Descending FlightAware
12:16PM 41.1260 -72.0980 222° Southwest 414 476 22,700  Level FlightAware
12:16PM 41.0650 -72.1700 222° Southwest 414 476 22,700 -3,840 Level FlightAware
12:17PM 41.0650 -72.2570 270° West 387 445 18,600 -5,700 Descending FlightAware
12:17PM 41.0450 -72.3390 252° West 368 423 17,500 -1,860 Descending FlightAware
12:18PM 41.0260 -72.4190 253° West 377 434 16,300 -1,800 Descending FlightAware
12:18PM 41.0060 -72.4970 251° West 375 432 15,400 -1,500 Descending FlightAware
12:19PM 40.9910 -72.5540 251° West 374 430 14,700 -840 Descending FlightAware
12:20PM 40.9720 -72.6290 251° West 371 427 14,500 -240 Descending FlightAware
12:20PM 40.9580 -72.6840 251° West 371 427 14,500  Level FlightAware
12:21PM 40.9440 -72.7390 251° West 371 427 14,500 -2,820 Level FlightAware
12:21PM 40.9230 -72.8010 246° West 306 352 11,700 -4,380 Descending FlightAware
12:21PM 40.9140 -72.8130 225° Southwest 303 349 11,600 -780 Descending FlightAware
12:22PM 40.8630 -72.8630 217° Southwest 300 345 11,000 -1,020 Descending FlightAware
12:23PM 40.8250 -72.8990 216° Southwest 298 343 10,300 -1,320 Descending FlightAware
12:23PM 40.7910 -72.9320 216° Southwest 295 339 9,600 -1,320 Descending FlightAware
12:24PM 40.7560 -72.9650 216° Southwest 292 336 9,000 -1,200 Descending FlightAware
12:24PM 40.7420 -72.9800 219° Southwest 292 336 8,700 -1,200 Descending FlightAware
12:24PM 40.7320 -73.0000 237° Southwest 294 338 8,400 -1,440 Descending FlightAware
12:24PM 40.7250 -73.0290 252° West 294 338 8,000 -1,680 Descending FlightAware
12:24PM 40.7220 -73.0460 257° West 294 338 7,700 -1,200 Descending FlightAware
12:25PM 40.7100 -73.1070 255° West 289 333 7,100 -1,080 Descending FlightAware
12:25PM 40.7060 -73.1310 258° West 287 330 6,800 -960 Descending FlightAware
12:26PM 40.6950 -73.1880 256° West 278 320 6,300 -1,140 Descending FlightAware
12:26PM 40.6890 -73.2220 257° West 279 321 5,800 -1,380 Descending FlightAware
12:27PM 40.6840 -73.2540 258° West 279 321 5,400 -1,200 Descending FlightAware
12:27PM 40.6910 -73.2880 285° West 270 311 5,000 -1,200 Descending FlightAware
12:27PM 40.7010 -73.3190 293° West 270 311 4,600 -1,200 Descending FlightAware
12:28PM 40.7140 -73.3550 295° West 268 308 4,100 -1,200 Descending FlightAware
12:28PM 40.7220 -73.3790 294° West 263 303 3,800 -720 Descending FlightAware
12:28PM 40.7300 -73.4010 296° West 255 293 3,700 -180 Descending FlightAware
12:28PM 40.7390 -73.4260 295° West 238 274 3,700  Level FlightAware
12:29PM 40.7500 -73.4570 295° West 233 268 3,700 -180 Level FlightAware
12:29PM 40.7600 -73.4840 296° West 227 261 3,600 -840 Descending FlightAware
12:30PM 40.7710 -73.5150 295° West 223 257 3,100 -1,200 Descending FlightAware
12:30PM 40.7790 -73.5380 295° West 222 255 2,700 -540 Descending FlightAware
12:30PM 40.7910 -73.5710 296° West 230 265 2,700 -180 Level FlightAware
12:31PM 40.7960 -73.5930 287° West 225 259 2,600 -840 Descending FlightAware
12:31PM 40.7770 -73.6230 230° Southwest 214 246 2,000 -1,020 Descending FlightAware
12:32PM 40.7500 -73.6440 211° Southwest 220 253 1,600 -420 Descending FlightAware
12:32PM 40.7280 -73.6660 217° Southwest 180 207 1,600 -240 Level FlightAware
12:33PM 40.7130 -73.6830 221° Southwest 173 199 1,400 -660 Descending FlightAware
12:33PM 40.6940 -73.7040 220° Southwest 174 200 1,000 -900 Descending FlightAware
12:34PM 40.6800 -73.7210 223° Southwest 164 189 600 -960 Descending FlightAware
12:34PM 40.6610 -73.7424 221° Southwest 153 176 -1,140 Descending FlightAware ADS-B
12:35PM 40.6400 -73.7590 211° Southwest 150 173  Level FlightAware